createdAt,value
2022-10-13T00:01:57.460Z,43.80
2022-10-13T00:04:39.150Z,41.70
2022-10-13T00:07:20.841Z,40.20
2022-10-13T00:10:02.531Z,42.40
2022-10-13T00:12:44.430Z,48.50
2022-10-13T00:15:26.324Z,44.00
2022-10-13T00:18:08.323Z,46.40
2022-10-13T00:20:50.320Z,44.10
2022-10-13T00:23:34.161Z,49.20
2022-10-13T00:26:17.311Z,48.50
2022-10-13T00:28:59.431Z,53.30
2022-10-13T00:31:41.180Z,60.30
2022-10-13T00:34:22.973Z,54.70
2022-10-13T00:37:04.971Z,52.90
2022-10-13T00:39:46.560Z,48.30
2022-10-13T00:42:30.209Z,43.20
2022-10-13T00:45:26.836Z,45.80
2022-10-13T00:48:08.734Z,44.70
2022-10-13T00:50:51.141Z,47.50
2022-10-13T00:53:36.447Z,44.90
2022-10-13T00:56:19.984Z,46.60
2022-10-13T00:59:03.790Z,51.40
2022-10-13T01:01:45.585Z,44.30
2022-10-13T01:04:37.331Z,45.60
2022-10-13T01:07:19.308Z,39.70
2022-10-13T01:10:02.851Z,45.10
2022-10-13T01:12:58.466Z,44.60
2022-10-13T01:16:00.221Z,44.40
2022-10-13T01:19:11.916Z,42.80
2022-10-13T01:22:02.619Z,40.70
2022-10-13T01:24:53.524Z,43.50
2022-10-13T01:28:07.985Z,47.60
2022-10-13T01:31:03.500Z,43.20
2022-10-13T01:33:52.769Z,36.20
2022-10-13T01:37:03.642Z,42.80
2022-10-13T01:39:57.929Z,41.80
2022-10-13T01:42:58.154Z,46.50
2022-10-13T01:45:50.187Z,48.60
2022-10-13T01:48:36.282Z,48.20
2022-10-13T01:51:20.716Z,37.70
2022-10-13T01:54:06.116Z,43.10
2022-10-13T01:56:55.582Z,42.20
2022-10-13T01:59:38.815Z,47.50
2022-10-13T02:02:32.076Z,44.80
2022-10-13T02:05:18.791Z,48.70
2022-10-13T02:08:13.071Z,45.90
2022-10-13T02:11:13.604Z,44.70
2022-10-13T02:14:03.691Z,43.90
2022-10-13T02:16:47.328Z,42.90
2022-10-13T02:19:31.110Z,42.50
2022-10-13T02:22:16.014Z,39.60
2022-10-13T02:24:57.931Z,45.40
2022-10-13T02:27:40.527Z,44.60
2022-10-13T02:30:26.946Z,45.30
2022-10-13T02:33:09.455Z,43.60
2022-10-13T02:35:52.681Z,48.70
2022-10-13T02:38:34.680Z,49.20
2022-10-13T02:41:16.371Z,49.90
2022-10-13T02:43:58.062Z,42.80
2022-10-13T02:46:41.905Z,50.20
2022-10-13T02:49:23.599Z,46.40
2022-10-13T02:52:05.285Z,51.60
2022-10-13T02:54:46.875Z,47.80
2022-10-13T02:57:28.564Z,51.60
2022-10-13T03:00:13.139Z,47.20
2022-10-13T03:02:54.814Z,46.70
2022-10-13T03:05:36.504Z,46.90
2022-10-13T03:08:18.213Z,46.40
2022-10-13T03:11:00.911Z,44.60
2022-10-13T03:13:44.444Z,49.10
2022-10-13T03:16:27.057Z,46.20
2022-10-13T03:19:08.954Z,43.80
2022-10-13T03:21:50.590Z,47.00
2022-10-13T03:24:32.233Z,43.40
2022-10-13T03:27:14.441Z,45.70
2022-10-13T03:29:56.125Z,41.00
2022-10-13T03:32:37.817Z,49.90
2022-10-13T03:35:19.609Z,52.30
2022-10-13T03:38:01.305Z,50.40
2022-10-13T03:40:44.835Z,44.20
2022-10-13T03:43:26.526Z,46.40
2022-10-13T03:46:09.139Z,44.60
2022-10-13T03:48:50.830Z,43.10
2022-10-13T03:51:33.023Z,51.50
2022-10-13T03:54:15.197Z,49.60
2022-10-13T03:56:57.745Z,44.60
2022-10-13T03:59:40.952Z,52.20
2022-10-13T04:02:23.153Z,53.50
2022-10-13T04:05:06.916Z,52.70
2022-10-13T04:07:48.644Z,52.70
2022-10-13T04:10:33.369Z,50.00
2022-10-13T04:13:15.266Z,56.80
2022-10-13T04:16:05.463Z,60.50
2022-10-13T04:18:52.396Z,53.40
2022-10-13T04:21:35.082Z,53.80
2022-10-13T04:24:18.103Z,54.10
2022-10-13T04:26:59.796Z,52.90
2022-10-13T04:29:41.694Z,51.20
2022-10-13T04:32:23.291Z,60.40
2022-10-13T04:35:05.483Z,60.50
2022-10-13T04:37:47.172Z,54.00
2022-10-13T04:40:28.864Z,60.40
2022-10-13T04:43:10.760Z,52.60
2022-10-13T04:45:52.555Z,50.60
2022-10-13T04:48:34.551Z,48.30
2022-10-13T04:51:19.723Z,58.50
2022-10-13T04:54:02.820Z,55.70
2022-10-13T04:56:46.095Z,62.40
2022-10-13T04:59:27.972Z,56.60
2022-10-13T05:02:10.685Z,53.50
2022-10-13T05:04:52.376Z,51.90
2022-10-13T05:07:35.224Z,53.60
2022-10-13T05:10:16.987Z,50.00
2022-10-13T05:12:58.576Z,49.50
2022-10-13T05:15:42.293Z,53.50
2022-10-13T05:18:24.519Z,55.00
2022-10-13T05:21:15.289Z,52.70
2022-10-13T05:23:58.242Z,55.90
2022-10-13T05:26:40.752Z,58.40
2022-10-13T05:29:22.956Z,45.80
2022-10-13T05:32:05.055Z,50.90
2022-10-13T05:34:49.409Z,42.70
2022-10-13T05:37:31.099Z,54.00
2022-10-13T05:40:13.304Z,52.30
2022-10-13T05:42:55.711Z,52.80
2022-10-13T05:45:37.784Z,56.40
2022-10-13T05:48:19.603Z,59.30
2022-10-13T05:51:05.088Z,62.40
2022-10-13T05:54:13.194Z,58.20
2022-10-13T05:56:59.944Z,52.60
2022-10-13T05:59:52.553Z,60.30
2022-10-13T06:02:41.153Z,55.60
2022-10-13T06:05:26.595Z,56.90
2022-10-13T06:08:10.014Z,48.20
2022-10-13T06:10:52.218Z,62.00
2022-10-13T06:13:35.445Z,61.10
2022-10-13T06:16:17.240Z,54.70
2022-10-13T06:18:59.030Z,56.00
2022-10-13T06:21:40.721Z,58.80
2022-10-13T06:24:22.309Z,52.10
2022-10-13T06:27:04.782Z,60.50
2022-10-13T06:29:46.518Z,66.40
2022-10-13T06:32:28.508Z,67.10
2022-10-13T06:35:10.307Z,89.20
2022-10-13T06:37:53.427Z,72.50
2022-10-13T06:40:35.424Z,64.30
2022-10-13T06:43:17.017Z,53.90
2022-10-13T06:45:59.867Z,58.60
2022-10-13T06:48:42.751Z,56.10
2022-10-13T06:51:24.645Z,55.70
2022-10-13T06:54:06.337Z,56.10
2022-10-13T06:56:48.439Z,62.30
2022-10-13T06:59:30.028Z,63.20
2022-10-13T07:02:11.954Z,63.60
2022-10-13T07:04:53.759Z,50.80
2022-10-13T07:07:35.508Z,58.30
2022-10-13T07:10:17.114Z,51.90
2022-10-13T07:12:58.786Z,56.40
2022-10-13T07:15:41.197Z,53.80
2022-10-13T07:18:22.887Z,60.60
2022-10-13T07:21:04.987Z,59.50
2022-10-13T07:23:47.102Z,50.70
2022-10-13T07:26:29.187Z,54.70
2022-10-13T07:29:11.185Z,52.10
2022-10-13T07:31:53.388Z,50.40
2022-10-13T07:34:34.992Z,48.10
2022-10-13T07:37:17.283Z,45.70
2022-10-13T07:40:00.610Z,48.80
2022-10-13T07:42:43.737Z,49.90
2022-10-13T07:45:25.630Z,49.80
2022-10-13T07:48:07.296Z,44.70
2022-10-13T07:50:49.012Z,48.50
2022-10-13T07:53:30.705Z,43.60
2022-10-13T07:56:14.032Z,45.20
2022-10-13T07:58:55.725Z,47.10
2022-10-13T08:01:37.446Z,45.00
2022-10-13T08:04:19.310Z,38.00
2022-10-13T08:07:01.207Z,38.80
2022-10-13T08:09:44.778Z,38.30
2022-10-13T08:12:26.409Z,41.70
2022-10-13T08:15:09.341Z,38.10
2022-10-13T08:17:51.031Z,34.80
2022-10-13T08:20:41.168Z,36.00
2022-10-13T08:23:25.175Z,30.50
2022-10-13T08:26:16.466Z,37.30
2022-10-13T08:29:16.814Z,39.00
2022-10-13T08:31:59.741Z,34.60
2022-10-13T08:34:41.533Z,30.30
2022-10-13T08:37:23.224Z,33.20
2022-10-13T08:40:05.621Z,36.00
2022-10-13T08:42:47.384Z,35.20
2022-10-13T08:45:46.668Z,32.40
2022-10-13T08:48:32.847Z,32.20
2022-10-13T08:51:16.459Z,32.10
2022-10-13T08:53:59.010Z,31.30
2022-10-13T08:56:41.786Z,30.50
2022-10-13T08:59:23.683Z,32.00
2022-10-13T09:02:16.332Z,27.50
2022-10-13T09:05:02.340Z,31.50
2022-10-13T09:07:46.494Z,34.40
2022-10-13T09:10:28.162Z,28.00
2022-10-13T09:13:10.671Z,32.90
2022-10-13T09:15:52.464Z,27.10
2022-10-13T09:18:34.873Z,27.80
2022-10-13T09:21:22.816Z,31.70
2022-10-13T09:24:16.715Z,28.60
2022-10-13T09:27:06.568Z,27.70
2022-10-13T09:29:49.592Z,29.50
2022-10-13T09:32:35.994Z,25.50
2022-10-13T09:35:22.173Z,26.70
2022-10-13T09:38:05.112Z,28.40
2022-10-13T09:41:11.069Z,26.80
2022-10-13T09:43:52.658Z,28.50
2022-10-13T09:46:57.007Z,25.80
2022-10-13T09:49:41.511Z,24.60
2022-10-13T09:52:25.295Z,25.00
2022-10-13T09:55:32.134Z,24.50
2022-10-13T09:58:31.127Z,22.80
2022-10-13T10:01:28.104Z,22.60
2022-10-13T10:04:15.437Z,25.50
2022-10-13T10:06:58.038Z,21.60
2022-10-13T10:09:44.953Z,26.10
2022-10-13T10:12:30.330Z,22.50
2022-10-13T10:15:26.254Z,23.80
2022-10-13T10:18:38.869Z,18.70
2022-10-13T10:21:37.149Z,19.00
2022-10-13T10:24:43.826Z,17.50
2022-10-13T10:27:50.502Z,21.70
2022-10-13T10:30:39.875Z,18.90
2022-10-13T10:33:33.852Z,16.60
2022-10-13T10:36:22.163Z,19.60
2022-10-13T10:39:21.912Z,16.00
2022-10-13T10:42:15.891Z,18.20
2022-10-13T10:45:01.678Z,24.60
2022-10-13T10:47:47.465Z,21.40
2022-10-13T10:50:31.326Z,19.10
2022-10-13T10:54:06.451Z,18.80
2022-10-13T10:57:03.955Z,16.50
2022-10-13T11:00:03.010Z,20.50
2022-10-13T11:02:51.506Z,18.30
2022-10-13T11:05:58.135Z,21.50
2022-10-13T11:08:42.668Z,17.90
2022-10-13T11:11:29.263Z,20.80
2022-10-13T11:14:25.815Z,22.50
2022-10-13T11:17:07.359Z,20.10
2022-10-13T11:19:49.734Z,20.10
2022-10-13T11:22:31.732Z,20.20
2022-10-13T11:25:42.401Z,23.10
2022-10-13T11:28:26.304Z,16.90
2022-10-13T11:31:13.990Z,18.20
2022-10-13T11:33:59.090Z,19.80
2022-10-13T11:36:55.810Z,16.60
2022-10-13T11:39:55.607Z,19.40
2022-10-13T11:43:08.423Z,19.50
2022-10-13T11:46:25.446Z,19.10
2022-10-13T11:49:35.501Z,20.80
2022-10-13T11:52:55.796Z,20.50
2022-10-13T11:55:55.818Z,37.70
2022-10-13T11:58:42.424Z,26.00
2022-10-13T12:01:24.116Z,22.70
2022-10-13T12:04:14.919Z,26.00
2022-10-13T12:07:01.116Z,21.10
2022-10-13T12:09:54.403Z,15.90
2022-10-13T12:12:36.994Z,20.10
2022-10-13T12:15:36.601Z,23.10
2022-10-13T12:18:24.644Z,22.40
2022-10-13T12:21:21.590Z,18.00
2022-10-13T12:24:09.630Z,19.20
2022-10-13T12:26:54.710Z,17.00
2022-10-13T12:29:41.267Z,23.60
2022-10-13T12:32:26.024Z,24.50
2022-10-13T12:35:36.739Z,45.90
2022-10-13T12:38:20.563Z,29.30
2022-10-13T12:41:03.572Z,25.90
2022-10-13T12:43:47.061Z,27.10
2022-10-13T12:46:42.165Z,31.40
2022-10-13T12:49:39.933Z,25.30
2022-10-13T12:52:29.320Z,26.10
2022-10-13T12:55:21.150Z,18.90
2022-10-13T12:58:06.407Z,21.80
2022-10-13T13:01:09.930Z,21.70
2022-10-13T13:04:04.960Z,21.50
2022-10-13T13:06:57.466Z,16.90
2022-10-13T13:09:42.527Z,21.80
2022-10-13T13:12:29.845Z,18.50
2022-10-13T13:15:27.420Z,19.90
2022-10-13T13:18:39.654Z,17.60
2022-10-13T13:21:21.389Z,26.80
2022-10-13T13:24:07.457Z,20.90
2022-10-13T13:26:57.878Z,20.20
2022-10-13T13:29:40.081Z,23.00
2022-10-13T13:32:24.438Z,23.10
2022-10-13T13:35:06.637Z,31.00
2022-10-13T13:37:51.049Z,19.60
2022-10-13T13:40:32.784Z,21.80
2022-10-13T13:43:14.477Z,21.40
2022-10-13T13:45:56.169Z,21.20
2022-10-13T13:48:37.957Z,25.30
2022-10-13T13:51:19.751Z,21.40
2022-10-13T13:54:01.546Z,19.30
2022-10-13T13:56:43.136Z,19.10
2022-10-13T13:59:24.825Z,18.30
2022-10-13T14:02:14.203Z,16.00
2022-10-13T14:04:58.756Z,17.40
2022-10-13T14:07:42.294Z,24.40
2022-10-13T14:10:25.719Z,18.80
2022-10-13T14:13:07.617Z,25.60
2022-10-13T14:16:00.059Z,22.80
2022-10-13T14:18:42.058Z,22.40
2022-10-13T14:37:02.663Z,22.10
2022-10-13T14:39:44.808Z,19.30
2022-10-13T14:42:28.181Z,21.30
2022-10-13T14:45:14.595Z,21.10
2022-10-13T14:47:56.698Z,20.60
2022-10-13T14:50:39.213Z,21.70
2022-10-13T14:53:20.896Z,24.60
2022-10-13T14:56:04.204Z,22.10
2022-10-13T14:58:51.905Z,19.00
2022-10-13T15:01:34.879Z,19.50
2022-10-13T15:04:16.572Z,21.60
2022-10-13T15:06:58.465Z,18.50
2022-10-13T15:09:52.680Z,23.20
2022-10-13T15:12:35.055Z,22.80
2022-10-13T15:15:17.053Z,20.30
2022-10-13T15:17:58.744Z,19.60
2022-10-13T15:20:45.454Z,22.90
2022-10-13T15:23:28.885Z,19.90
2022-10-13T15:26:12.322Z,22.10
2022-10-13T15:28:54.136Z,21.30
2022-10-13T15:31:35.806Z,22.80
2022-10-13T15:34:17.389Z,22.90
2022-10-13T15:36:58.978Z,30.60
2022-10-13T15:39:40.570Z,26.60
2022-10-13T15:42:22.600Z,22.30
2022-10-13T15:45:10.008Z,21.30
2022-10-13T15:47:53.217Z,26.60
2022-10-13T15:50:39.082Z,26.00
2022-10-13T15:53:21.206Z,25.40
2022-10-13T15:56:03.121Z,28.30
2022-10-13T15:58:45.638Z,25.80
2022-10-13T16:01:27.414Z,25.30
2022-10-13T16:04:09.198Z,23.10
2022-10-13T16:06:50.787Z,24.90
2022-10-13T16:09:32.423Z,29.00
2022-10-13T16:12:14.175Z,29.00
2022-10-13T16:14:56.270Z,26.40
2022-10-13T16:17:40.336Z,26.00
2022-10-13T16:20:24.627Z,26.60
2022-10-13T16:23:07.490Z,29.30
2022-10-13T16:25:49.178Z,32.90
2022-10-13T16:28:30.954Z,34.30
2022-10-13T16:31:16.444Z,39.60
2022-10-13T16:33:58.656Z,38.50
2022-10-13T16:36:40.448Z,38.50
2022-10-13T16:39:25.006Z,36.60
2022-10-13T16:42:06.901Z,40.20
2022-10-13T16:44:48.797Z,36.50
2022-10-13T16:47:30.486Z,38.80
2022-10-13T16:50:19.141Z,38.60
2022-10-13T16:53:01.069Z,42.90
2022-10-13T16:55:43.246Z,43.70
2022-10-13T16:58:25.245Z,38.70
2022-10-13T17:01:11.596Z,47.20
2022-10-13T17:03:55.888Z,49.20
2022-10-13T17:06:40.883Z,47.10
2022-10-13T17:09:22.519Z,45.70
2022-10-13T17:12:06.492Z,39.00
2022-10-13T17:14:49.002Z,39.80
2022-10-13T17:17:30.668Z,41.40
2022-10-13T17:20:13.411Z,39.30
2022-10-13T17:22:55.463Z,40.70
2022-10-13T17:25:37.097Z,41.10
2022-10-13T17:28:23.241Z,45.90
2022-10-13T17:31:12.890Z,36.10
2022-10-13T17:33:55.072Z,44.10
2022-10-13T17:36:36.763Z,41.20
2022-10-13T17:39:25.203Z,35.20
2022-10-13T17:42:39.878Z,39.80
2022-10-13T17:45:23.103Z,41.00
2022-10-13T17:48:04.897Z,41.50
2022-10-13T17:50:47.815Z,44.20
2022-10-13T17:53:29.507Z,42.80
2022-10-13T17:56:14.891Z,42.70
2022-10-13T17:58:57.044Z,42.50
2022-10-13T18:01:39.376Z,43.80
2022-10-13T18:04:22.313Z,43.10
2022-10-13T18:07:04.003Z,41.20
2022-10-13T18:09:45.695Z,45.90
2022-10-13T18:12:27.385Z,43.10
2022-10-13T18:15:09.295Z,41.00
2022-10-13T18:17:50.974Z,45.60
2022-10-13T18:20:32.560Z,47.30
2022-10-13T18:23:32.324Z,39.90
2022-10-13T18:26:20.477Z,44.20
2022-10-13T18:29:04.439Z,43.20
2022-10-13T18:31:46.405Z,37.00
2022-10-13T18:34:28.069Z,43.50
2022-10-13T18:37:09.693Z,41.00
2022-10-13T18:39:51.328Z,38.60
2022-10-13T18:42:33.019Z,41.90
2022-10-13T18:45:15.333Z,41.30
2022-10-13T18:47:56.917Z,39.40
2022-10-13T18:50:39.116Z,38.50
2022-10-13T18:53:20.909Z,46.10
2022-10-13T18:56:07.618Z,39.00
2022-10-13T18:58:53.512Z,40.70
2022-10-13T19:01:39.704Z,41.50
2022-10-13T19:04:22.564Z,39.40
2022-10-13T19:07:12.041Z,40.20
2022-10-13T19:09:55.527Z,42.60
2022-10-13T19:12:37.320Z,35.50
2022-10-13T19:15:19.012Z,41.30
2022-10-13T19:18:00.805Z,43.10
2022-10-13T19:20:42.497Z,47.90
2022-10-13T19:23:25.585Z,41.30
2022-10-13T19:26:15.262Z,40.60
2022-10-13T19:29:00.803Z,43.30
2022-10-13T19:31:44.485Z,41.20
2022-10-13T19:34:27.234Z,44.10
2022-10-13T19:37:10.256Z,44.10
2022-10-13T19:39:52.254Z,55.10
2022-10-13T19:42:37.263Z,54.00
2022-10-13T19:45:22.312Z,53.40
2022-10-13T19:48:12.685Z,50.10
2022-10-13T19:50:54.803Z,44.70
2022-10-13T19:53:38.525Z,41.90
2022-10-13T19:56:38.653Z,43.90
2022-10-13T19:59:26.281Z,40.80
2022-10-13T20:02:10.301Z,40.10
2022-10-13T20:05:24.633Z,38.40
2022-10-13T20:08:10.547Z,42.90
2022-10-13T20:10:52.568Z,40.70
2022-10-13T20:13:34.565Z,50.10
2022-10-13T20:16:19.045Z,44.00
2022-10-13T20:19:02.878Z,41.70
2022-10-13T20:21:45.403Z,44.70
2022-10-13T20:24:30.557Z,47.20
2022-10-13T20:27:40.297Z,41.70
2022-10-13T20:30:25.774Z,48.40
2022-10-13T20:33:09.103Z,41.50
2022-10-13T20:35:50.897Z,45.30
2022-10-13T20:38:37.981Z,40.50
2022-10-13T20:41:26.965Z,47.80
2022-10-13T20:44:09.998Z,52.80
2022-10-13T20:46:51.694Z,45.80
2022-10-13T20:49:36.554Z,45.20
2022-10-13T20:52:18.450Z,48.00
2022-10-13T20:55:04.695Z,47.30
2022-10-13T20:57:53.301Z,43.50
2022-10-13T21:00:34.977Z,47.80
2022-10-13T21:03:19.551Z,47.50
2022-10-13T21:06:04.195Z,46.00
2022-10-13T21:08:47.856Z,49.70
2022-10-13T21:11:29.659Z,48.60
2022-10-13T21:14:11.434Z,52.50
2022-10-13T21:16:55.889Z,51.80
2022-10-13T21:19:37.889Z,48.20
2022-10-13T21:22:19.680Z,56.70
2022-10-13T21:25:01.884Z,49.90
2022-10-13T21:27:44.192Z,50.20
2022-10-13T21:30:25.981Z,60.90
2022-10-13T21:33:07.777Z,53.10
2022-10-13T21:35:49.671Z,55.70
2022-10-13T21:38:31.260Z,50.90
2022-10-13T21:41:14.656Z,54.10
2022-10-13T21:43:56.586Z,55.80
2022-10-13T21:46:38.483Z,49.60
2022-10-13T21:49:20.174Z,54.70
2022-10-13T21:52:02.375Z,56.80
2022-10-13T21:54:44.388Z,53.10
2022-10-13T21:57:26.373Z,51.20
2022-10-13T22:00:09.061Z,49.30
2022-10-13T22:02:54.358Z,53.10
2022-10-13T22:05:37.739Z,53.70
2022-10-13T22:08:19.383Z,51.20
2022-10-13T22:11:00.983Z,59.60
2022-10-13T22:13:42.563Z,59.70
2022-10-13T22:16:27.217Z,54.30
2022-10-13T22:19:09.010Z,52.20
2022-10-13T22:21:51.590Z,55.30
2022-10-13T22:24:33.213Z,59.40
2022-10-13T22:27:14.801Z,58.40
2022-10-13T22:29:56.397Z,50.40
2022-10-13T22:32:38.286Z,58.80
2022-10-13T22:35:19.886Z,50.90
2022-10-13T22:38:01.616Z,56.10
2022-10-13T22:40:43.255Z,59.10
2022-10-13T22:43:24.949Z,56.60
2022-10-13T22:46:08.383Z,59.80
2022-10-13T22:48:50.988Z,61.60
2022-10-13T22:51:35.041Z,59.50
2022-10-13T22:54:16.729Z,62.70
2022-10-13T22:56:58.291Z,60.10
2022-10-13T22:59:39.865Z,60.10
2022-10-13T23:02:21.596Z,62.60
2022-10-13T23:05:03.592Z,59.90
2022-10-13T23:07:45.371Z,62.90
2022-10-13T23:10:27.082Z,63.20
2022-10-13T23:13:08.687Z,58.90
2022-10-13T23:15:50.769Z,55.30
2022-10-13T23:18:32.869Z,64.60
2022-10-13T23:21:17.697Z,62.70
2022-10-13T23:24:02.659Z,63.10
2022-10-13T23:26:44.804Z,63.40
2022-10-13T23:29:27.279Z,58.70
2022-10-13T23:32:09.976Z,58.70
2022-10-13T23:34:52.128Z,59.80
2022-10-13T23:37:34.535Z,60.90
2022-10-13T23:40:16.386Z,61.40
2022-10-13T23:42:58.020Z,64.50
2022-10-13T23:45:40.019Z,66.50
2022-10-13T23:48:21.915Z,60.90
2022-10-13T23:51:15.483Z,69.60
2022-10-13T23:53:57.186Z,70.30
2022-10-13T23:56:39.069Z,58.50
2022-10-13T23:59:20.690Z,63.40
